This is the latest recevied weather packets stored in our database for station/object N3MFL. If no packets are shown the sender has not sent any weather packets the latest 10 day(s).
| Time | Temp. | Humidity | Pressure | Rain* | Wind** | Luminosity | Snow |
|---|---|---|---|---|---|---|---|
| 1777298670 | 15.56° C | 47% | 1025.3 hPa | 0 mm | - | 548 W/m² | - |
| 1777298366 | 15.56° C | 47% | 1025.4 hPa | 0 mm | - | 536 W/m² | - |
| 1777297762 | 15.56° C | 47% | 1025.3 hPa | 0 mm | - | 514 W/m² | - |
| 1777297461 | 15° C | 48% | 1025.3 hPa | 0 mm | - | 502 W/m² | - |
| 1777296555 | 14.44° C | 52% | 1025.1 hPa | 0 mm | - | 461 W/m² | - |
| 1777295917 | 14.44° C | 50% | 1025.1 hPa | 0 mm | - | 437 W/m² | - |
| 1777295614 | 14.44° C | 50% | 1025 hPa | 0 mm | - | 424 W/m² | - |
| 1777295311 | 14.44° C | 50% | 1025.1 hPa | 0 mm | - | 411 W/m² | - |
| 1777295010 | 13.89° C | 51% | 1025 hPa | 0 mm | - | 393 W/m² | - |
| 1777294401 | 13.89° C | 50% | 1025 hPa | 0 mm | - | 369 W/m² | - |
| 1777293496 | 12.78° C | 52% | 1024.8 hPa | 0 mm | - | 325 W/m² | - |
| 1777293192 | 12.78° C | 53% | 1025 hPa | 0 mm | - | 312 W/m² | - |
| 1777292891 | 12.22° C | 53% | 1024.9 hPa | 0 mm | - | 296 W/m² | - |
| 1777292587 | 11.67° C | 54% | 1025 hPa | 0 mm | - | 282 W/m² | - |
| 1777292282 | 11.67° C | 56% | 1025.1 hPa | 0 mm | - | 267 W/m² | - |
| 1777291974 | 11.67° C | 56% | 1025 hPa | 0 mm | - | 252 W/m² | - |
| 1777291671 | 11.11° C | 56% | 1024.9 hPa | 0 mm | - | 237 W/m² | - |
| 1777291368 | 10.56° C | 58% | 1025 hPa | 0 mm | - | 224 W/m² | - |
| 1777290457 | 10° C | 60% | 1025 hPa | 0 mm | - | 152 W/m² | - |
| 1777290153 | 10° C | 60% | 1024.8 hPa | 0 mm | - | 122 W/m² | - |
| 1777289546 | 8.89° C | 67% | 1024.8 hPa | 0 mm | - | 86 W/m² | - |
| 1777289241 | 8.33° C | 68% | 1024.8 hPa | 0 mm | - | 65 W/m² | - |
| 1777288938 | 7.22° C | 79% | 1024.9 hPa | 0 mm | - | 52 W/m² | - |
| 1777288635 | 6.11° C | 95% | 1024.8 hPa | 0 mm | - | 39 W/m² | - |
| 1777288332 | 5° C | 97% | 1024.8 hPa | 0 mm | - | 37 W/m² | - |
* Rain latest hour (hover to see other rain measurements)
** Current wind speed in m/s (hover to see current wind gust speed)